x

Buoy I01 - Eastern Maine Shelf (44034) Wave Buoy

12:04 - Fri 26th Aug 2016 All times are EDT. -4 hours from GMT.

  • Sig Wave height 3.9ft
  • Peak Period 5s
  • Wind
    16mph, 18mph gusts
  • Sea Temp 56°f
  • Ar Temp 62°f
  • Sea Pressure 1013.9mb
  • Buoy I01 - Eastern Maine Shelf
  • Buoy I01 - Eastern Maine Shelf

More Historic Weather Station data

Upgrade to MSW Pro to gain access to the past 30 days of data for over 8000 Wavebouys and Weather Stations around the globe.

Join Pro

Comparision Forecast

View Surf forecast
   
Sex 08/26 12:04 4ft 5s 16 18 mph 1013.9mb 56f 62f
Qui 08/25 11:04 4ft 6s 16 18 mph 1014.3mb 56f 61f
10:04 3.5ft 5s 16 18 mph 1014.4mb 56f 62f
9:04 4ft 6s 13 16 mph 1014.6mb 56f 61f
8:04 4ft 5s 18 20 mph 1014.3mb 56f 62f
7:04 4.5ft 6s 18 20 mph 1014.2mb 56f 62f
6:04 4.5ft 5s 18 20 mph 1014.3mb 57f 62f
5:04 4.5ft 6s 16 18 mph 1014.6mb 57f 62f
4:04 4ft 5s 18
mph
1014.9mb 57f 62f
3:04 3.5ft 5s 16 18 mph 1015.5mb 57f 62f
2:04 3.5ft 5s 18 20 mph 1016.2mb 57f 62f
1:04 3.5ft 5s 16 18 mph 1016.6mb 57f 62f
12:04 2.5ft 5s 13 16 mph 1016.9mb 57f 62f
11:04 2.5ft 4s 11
mph
1017.6mb 57f 60f
10:04 2.5ft 5s 13 16 mph 1017.6mb 56f 61f
9:04 3.5ft 11s 11 13 mph 1017.6mb 56f 61f
8:04 1.6ft 4s 13 16 mph 1017.6mb 56f 61f
7:04 1.6ft 4s 11 13 mph 1017.7mb 56f 60f
6:04 1.6ft 4s 9 11 mph 1017.9mb 56f 59f
5:04 1.6ft 4s 9
mph
1017.9mb 55f 59f
4:04 1.6ft 4s 11
mph
1017.5mb 56f 60f
3:04 1.3ft 4s 9
mph
1017.6mb 56f 60f
2:04 1.3ft 4s 9 11 mph 1018.5mb 57f 60f
1:04 1.3ft 4s 4 7 mph 1018.9mb 57f 59f
12:04 1.3ft 5s 2
mph
1019.9mb 57f 59f
Qua 08/24 11:04 1.3ft 4s 2
mph
1020.1mb 56f 59f
10:04 1.3ft 4s 4
mph
1020.8mb 57f 59f
9:04 2.5ft 11s 4
mph
1021.2mb 56f 60f
8:04 1.3ft 5s 9
mph
1020.8mb 56f 60f
7:04 1.6ft 5s 9 11 mph 1020.1mb 56f 59f
6:04 2ft 5s 9
mph
1020.3mb 55f 59f
5:04 1.6ft 5s 11 13 mph 1020.2mb 55f 60f
4:04 2ft 5s 11 13 mph 1020.5mb 56f 60f
3:04 1.6ft 5s 11 13 mph 1020.9mb 56f 60f
2:04 1.6ft 5s 11 13 mph 1021.5mb 57f 60f
1:04 1.6ft 4s 9 11 mph 1021.9mb 56f 59f
12:04 1.6ft 5s 9
mph
1022.2mb 56f 59f
11:04 1.6ft 5s 7 9 mph 1022.7mb 56f 59f
10:04 1.6ft 5s 9 11 mph 1022.7mb 56f 60f
9:04 2ft 5s 7
mph
1022.7mb 56f 59f
8:04 2ft 5s 4
mph
1022.8mb 56f 60f
7:04 1.6ft 4s 7
mph
1022.3mb 56f 59f
6:04 1.6ft 4s 7
mph
1021.6mb 56f 58f
5:04 1.3ft 4s 7 9 mph 1021.6mb 56f 58f
4:04 1.3ft 4s 9
mph
1021.4mb 56f 58f
3:04 1.6ft 4s 7 9 mph 1021.7mb 56f 58f
2:04 1.3ft 4s 4 7 mph 1021.9mb 56f 58f
1:04 1.6ft 4s 7 9 mph 1022.2mb 56f 59f
12:04 2ft 5s 9
mph
1022.7mb 56f 59f
Ter 08/23 11:04 2.5ft 4s 13
mph
1022.4mb 56f 59f
10:04 2.5ft 5s 13 16 mph 1022.2mb 56f 60f
9:04 2.5ft 5s 11 13 mph 1022.2mb 56f 59f
8:04 2.5ft 5s 13 16 mph 1021.4mb 55f 60f
7:04 2.5ft 5s 13 16 mph 1021.3mb 56f 60f
6:04 2ft 5s 13 16 mph 1021.1mb 55f 60f
5:04 2.5ft 4s 11 13 mph 1021.3mb 55f 61f
4:04 2ft 5s 13 16 mph 1021.4mb 56f 61f
3:04 1.6ft 5s 13 16 mph 1021.7mb 57f 61f
2:04 1.6ft 4s 11 13 mph 1022.1mb 57f 59f
1:04 1.6ft 4s 13 16 mph 1022.2mb 57f 60f
12:04 1.6ft 4s 13 16 mph 1022.2mb 56f 60f
11:04 1.6ft 5s 11 13 mph 1022.2mb 56f 59f
10:04 1.6ft 5s 9
mph
1022.4mb 56f 58f
9:04 1.6ft 5s 7
mph
1022.1mb 56f 59f
8:04 1.6ft 5s 11 13 mph 1021.6mb 56f 58f
7:04 1.6ft 5s 11
mph
1020.9mb 56f 57f
6:04 1.6ft 5s 9
mph
1020.4mb 55f 56f
5:04 1.6ft 4s 7 9 mph 1019.7mb 55f 57f
4:04 1.6ft 4s 11
mph
1018.9mb 55f 58f
3:04 1.6ft 3s 11 13 mph 1018.7mb 55f 58f
2:04 2.5ft 8s 13 16 mph 1018.1mb 55f 58f
1:04 2ft 3s 16 18 mph 1017.4mb 55f 59f
12:04 2ft 4s 16 18 mph 1016.9mb 55f 59f
Seg 08/22 11:04 2.5ft 8s 13 16 mph 1016.4mb 55f 59f
10:04 2ft 4s 13 16 mph 1015.8mb 55f 60f
9:04 2.5ft 5s 13 20 mph 1015mb 55f 60f
8:04 3ft 4s 13 16 mph 1013.8mb 55f 61f
7:04 3ft 3s 18 22 mph 1012.6mb 55f 62f
6:04 3ft 3s 18 22 mph 1011mb 55f 63f
5:04 2.5ft 5s 16 18 mph 1009.7mb 55f 63f
4:04 2ft 5s 9 11 mph 1008.7mb 56f 62f
3:04 2ft 5s 7 9 mph 1008.1mb 55f 60f
2:04 2.5ft 5s 9
mph
1007.7mb 55f 61f
1:04 2.5ft 5s 9 11 mph 1007.2mb 55f 60f
12:04 3.5ft 4s 7 9 mph 1007mb 55f 58f
11:04 3ft 4s 16 18 mph 1006.5mb 54f 61f
10:04 2.5ft 4s 13 18 mph 1006.3mb 54f 62f
9:04 2.5ft 4s 13
mph
1006.5mb 54f 61f
8:04 2.5ft 5s 11
mph
1007.3mb 54f 60f
7:04 2.5ft 4s 11
mph
1007.5mb 54f 60f
6:04 1.6ft 4s 11 13 mph 1007.9mb 55f 61f